Hico, Texas
Current Conditions -  °F | °C
As of 7:15 AM on Sunday 23 Nov 2014 (Local Time) from KSEP Reporting Station
Overcast Overcast  
Wind Chill: 49°   Ceiling: 100
Heat Index: 49°   Visibility: 0mi
Dew Point: 47°   Wind: 3mph
Humidity: 94%   Direction: 190°S
Pressure: 29.62"   Gusts: NA
Location:  31.98°N, 98.03°W
Report Text: KSEP 231315Z AUTO 19003KT M1/4SM OVC001 09/08 A2962 RMK AO2 T00920083
Loading
Personal Weather Stations






























Interactive Weather Map New forecast layout! Learn more

10-Day Weather Forecast

Advertisements
Track Severe Weather on mobile